createdAt,value
2022-07-29T00:01:46.939Z,67.41
2022-07-29T00:06:38.986Z,67.41
2022-07-29T00:11:30.635Z,67.52
2022-07-29T00:16:22.360Z,67.24
2022-07-29T00:21:14.221Z,67.26
2022-07-29T00:26:05.920Z,67.41
2022-07-29T00:30:57.601Z,67.65
2022-07-29T00:35:49.246Z,67.38
2022-07-29T00:40:43.302Z,67.58
2022-07-29T00:45:36.374Z,67.72
2022-07-29T00:50:28.218Z,67.83
2022-07-29T00:55:20.268Z,67.68
2022-07-29T01:00:18.462Z,67.46
2022-07-29T01:05:12.862Z,67.47
2022-07-29T01:10:07.516Z,67.63
2022-07-29T01:15:00.022Z,67.94
2022-07-29T01:20:10.663Z,67.64
2022-07-29T01:25:20.996Z,67.56
2022-07-29T01:30:15.575Z,67.46
2022-07-29T01:35:16.688Z,67.33
2022-07-29T01:40:19.951Z,67.54
2022-07-29T01:45:58.805Z,67.44
2022-07-29T01:50:59.695Z,67.27
2022-07-29T01:55:53.985Z,67.27
2022-07-29T02:00:52.438Z,67.49
2022-07-29T02:05:47.480Z,67.38
2022-07-29T02:10:41.113Z,67.20
2022-07-29T02:15:35.382Z,67.65
2022-07-29T02:20:28.756Z,67.14
2022-07-29T02:25:23.450Z,67.56
2022-07-29T02:30:15.686Z,67.44
2022-07-29T02:35:09.806Z,67.43
2022-07-29T02:40:03.209Z,67.03
2022-07-29T02:44:55.169Z,67.45
2022-07-29T02:49:58.905Z,67.17
2022-07-29T02:55:03.608Z,67.13
2022-07-29T02:59:59.709Z,67.40
2022-07-29T03:04:53.610Z,67.56
2022-07-29T03:09:46.302Z,67.30
2022-07-29T03:14:38.645Z,67.21
2022-07-29T03:19:30.407Z,67.10
2022-07-29T03:24:36.557Z,67.30
2022-07-29T03:29:33.193Z,67.55
2022-07-29T03:34:25.740Z,67.64
2022-07-29T03:39:24.219Z,68.24
2022-07-29T03:44:17.865Z,68.60
2022-07-29T03:49:12.372Z,68.94
2022-07-29T03:54:09.966Z,68.65
2022-07-29T03:59:02.637Z,68.60
2022-07-29T04:03:54.651Z,68.85
2022-07-29T04:08:46.450Z,69.85
2022-07-29T04:13:38.065Z,69.96
2022-07-29T04:18:29.701Z,69.93
2022-07-29T04:23:21.342Z,70.66
2022-07-29T04:28:13.077Z,70.61
2022-07-29T04:33:07.095Z,70.84
2022-07-29T04:37:58.714Z,71.70
2022-07-29T04:42:50.373Z,71.83
2022-07-29T04:47:42.038Z,71.94
2022-07-29T04:52:33.990Z,72.23
2022-07-29T04:57:25.565Z,72.54
2022-07-29T05:02:17.292Z,72.81
2022-07-29T05:07:08.908Z,73.11
2022-07-29T05:12:00.563Z,73.73
2022-07-29T05:16:52.217Z,74.33
2022-07-29T05:21:45.494Z,74.35
2022-07-29T05:26:37.166Z,74.58
2022-07-29T05:31:28.806Z,74.74
2022-07-29T05:36:20.526Z,74.90
2022-07-29T05:41:12.637Z,74.97
2022-07-29T05:46:04.342Z,75.95
2022-07-29T05:50:56.164Z,76.32
2022-07-29T05:55:49.152Z,76.56
2022-07-29T06:00:41.071Z,76.96
2022-07-29T06:05:32.682Z,77.81
2022-07-29T06:10:26.108Z,77.87
2022-07-29T06:15:18.923Z,78.30
2022-07-29T06:20:12.399Z,77.94
2022-07-29T06:25:04.700Z,78.28
2022-07-29T06:29:57.489Z,79.05
2022-07-29T06:34:49.373Z,80.54
2022-07-29T06:39:41.667Z,81.31
2022-07-29T06:44:35.025Z,81.20
2022-07-29T06:49:27.383Z,81.77
2022-07-29T06:54:19.413Z,81.80
2022-07-29T06:59:12.900Z,82.02
2022-07-29T07:04:04.682Z,81.90
2022-07-29T07:08:56.365Z,81.77
2022-07-29T07:13:48.091Z,81.95
2022-07-29T07:18:39.741Z,81.77
2022-07-29T07:23:31.708Z,81.95
2022-07-29T07:28:24.508Z,81.68
2022-07-29T07:33:16.859Z,81.60
2022-07-29T07:38:08.634Z,82.19
2022-07-29T07:43:00.388Z,81.66
2022-07-29T07:47:52.041Z,81.46
2022-07-29T07:52:50.476Z,81.37
2022-07-29T07:57:42.239Z,81.28
2022-07-29T08:02:33.872Z,81.09
2022-07-29T08:07:25.512Z,80.76
2022-07-29T08:12:17.261Z,80.63
2022-07-29T08:17:08.964Z,80.53
2022-07-29T08:22:00.773Z,80.33
2022-07-29T08:26:52.418Z,79.99
2022-07-29T08:31:44.466Z,79.23
2022-07-29T08:36:36.612Z,79.02
2022-07-29T08:41:28.362Z,78.19
2022-07-29T08:46:22.529Z,76.76
2022-07-29T08:51:16.347Z,76.48
2022-07-29T08:56:08.174Z,75.53
2022-07-29T09:01:02.597Z,75.08
2022-07-29T09:05:55.459Z,72.58
2022-07-29T09:10:47.899Z,71.83
2022-07-29T09:15:39.630Z,71.46
2022-07-29T09:20:51.232Z,69.75
2022-07-29T09:25:42.945Z,69.68
2022-07-29T09:30:34.845Z,70.25
2022-07-29T09:35:27.219Z,67.79
2022-07-29T09:40:25.250Z,67.98
2022-07-29T09:45:34.901Z,67.33
2022-07-29T09:50:41.205Z,66.99
2022-07-29T09:55:33.502Z,65.99
2022-07-29T10:00:26.510Z,66.38
2022-07-29T10:05:26.158Z,66.34
2022-07-29T10:10:23.467Z,64.47
2022-07-29T10:15:16.598Z,63.82
2022-07-29T10:20:12.537Z,65.02
2022-07-29T10:25:09.697Z,63.13
2022-07-29T10:30:02.842Z,62.62
2022-07-29T10:35:19.753Z,62.38
2022-07-29T10:41:08.679Z,61.51
2022-07-29T10:46:01.868Z,62.51
2022-07-29T10:50:57.329Z,63.00
2022-07-29T10:55:51.419Z,61.33
2022-07-29T11:00:48.075Z,60.27
2022-07-29T11:05:55.857Z,60.46
2022-07-29T11:10:49.218Z,58.35
2022-07-29T11:15:55.229Z,58.77
2022-07-29T11:20:54.882Z,57.89
2022-07-29T11:26:07.751Z,56.87
2022-07-29T11:31:00.665Z,56.28
2022-07-29T11:36:16.827Z,56.33
2022-07-29T11:41:18.956Z,55.40
2022-07-29T11:46:12.900Z,55.27
2022-07-29T11:51:12.071Z,55.31
2022-07-29T11:56:05.147Z,56.11
2022-07-29T12:00:58.634Z,55.82
2022-07-29T12:05:57.409Z,55.39
2022-07-29T12:10:53.050Z,55.42
2022-07-29T12:16:00.036Z,55.20
2022-07-29T12:21:05.597Z,54.45
2022-07-29T12:25:59.534Z,54.46
2022-07-29T12:30:51.845Z,53.31
2022-07-29T12:35:58.082Z,53.40
2022-07-29T12:40:56.229Z,52.87
2022-07-29T12:45:51.022Z,51.87
2022-07-29T12:51:00.207Z,52.47
2022-07-29T12:55:53.425Z,51.59
2022-07-29T13:00:45.150Z,50.79
2022-07-29T13:05:48.835Z,50.26
2022-07-29T13:10:42.082Z,51.66
2022-07-29T13:15:35.224Z,50.23
2022-07-29T13:20:30.663Z,49.75
2022-07-29T13:25:28.124Z,50.27
2022-07-29T13:30:19.749Z,47.44
2022-07-29T13:35:11.383Z,48.84
2022-07-29T13:40:04.444Z,48.18
2022-07-29T13:44:56.336Z,47.94
2022-07-29T13:49:48.378Z,48.32
2022-07-29T13:54:42.625Z,46.85
2022-07-29T13:59:34.740Z,47.05
2022-07-29T14:04:26.796Z,47.20
2022-07-29T14:09:18.887Z,47.92
2022-07-29T14:14:11.622Z,46.39
2022-07-29T14:19:03.512Z,46.46
2022-07-29T14:23:55.682Z,46.30
2022-07-29T14:28:48.081Z,46.93
2022-07-29T14:33:39.750Z,47.69
2022-07-29T14:38:31.375Z,48.49
2022-07-29T14:43:23.034Z,47.96
2022-07-29T14:48:14.651Z,47.63
2022-07-29T14:53:06.449Z,47.05
2022-07-29T14:58:07.761Z,47.81
2022-07-29T15:03:02.751Z,47.61
2022-07-29T15:07:54.750Z,47.36
2022-07-29T15:12:46.390Z,46.43
2022-07-29T15:17:38.134Z,45.91
2022-07-29T15:22:29.756Z,46.00
2022-07-29T15:27:21.434Z,47.02
2022-07-29T15:32:13.278Z,47.90
2022-07-29T15:37:06.275Z,46.82
2022-07-29T15:42:00.569Z,48.10
2022-07-29T15:47:04.673Z,46.96
2022-07-29T15:51:59.872Z,48.01
2022-07-29T15:56:51.776Z,48.92
2022-07-29T16:01:43.406Z,48.70
2022-07-29T16:06:35.038Z,50.28
2022-07-29T16:11:26.785Z,49.71
2022-07-29T16:16:19.126Z,50.17
2022-07-29T16:21:11.586Z,50.40
2022-07-29T16:26:03.373Z,50.20
2022-07-29T16:30:55.139Z,49.99
2022-07-29T16:35:46.873Z,50.67
2022-07-29T16:40:38.937Z,50.83
2022-07-29T16:45:32.684Z,50.31
2022-07-29T16:50:39.703Z,50.18
2022-07-29T16:55:31.314Z,51.00
2022-07-29T17:00:23.680Z,51.30
2022-07-29T17:05:15.942Z,51.77
2022-07-29T17:10:09.241Z,52.56
2022-07-29T17:15:00.918Z,52.34
2022-07-29T17:19:52.586Z,52.71
2022-07-29T17:24:45.521Z,53.37
2022-07-29T17:29:38.923Z,53.38
2022-07-29T17:34:31.023Z,53.83
2022-07-29T17:39:22.822Z,54.14
2022-07-29T17:44:14.633Z,54.86
2022-07-29T17:49:07.342Z,54.17
2022-07-29T17:53:59.496Z,55.14
2022-07-29T17:58:52.181Z,54.76
2022-07-29T18:03:44.385Z,55.48
2022-07-29T18:08:36.968Z,55.70
2022-07-29T18:13:28.639Z,56.20
2022-07-29T18:18:20.411Z,55.97
2022-07-29T18:23:12.155Z,56.54
2022-07-29T18:28:04.293Z,56.11
2022-07-29T18:33:19.876Z,56.59
2022-07-29T18:38:07.808Z,56.95
2022-07-29T18:42:59.482Z,57.67
2022-07-29T18:47:51.831Z,57.17
2022-07-29T18:52:46.400Z,57.72
2022-07-29T18:57:55.077Z,57.27
2022-07-29T19:02:49.021Z,57.40
2022-07-29T19:07:40.863Z,58.18
2022-07-29T19:12:32.554Z,58.43
2022-07-29T19:17:24.168Z,57.96
2022-07-29T19:22:15.863Z,58.54
2022-07-29T19:27:07.822Z,58.36
2022-07-29T19:32:00.633Z,58.72
2022-07-29T19:36:53.109Z,59.10
2022-07-29T19:41:44.973Z,59.31
2022-07-29T19:46:37.250Z,60.01
2022-07-29T19:51:28.964Z,59.68
2022-07-29T19:56:20.756Z,59.80
2022-07-29T20:01:12.762Z,59.81
2022-07-29T20:06:04.477Z,60.03
2022-07-29T20:10:56.137Z,60.51
2022-07-29T20:15:48.182Z,60.61
2022-07-29T20:20:39.885Z,61.60
2022-07-29T20:25:31.570Z,61.57
2022-07-29T20:30:23.517Z,62.12
2022-07-29T20:35:15.637Z,62.26
2022-07-29T20:40:08.704Z,62.76
2022-07-29T20:45:08.577Z,62.35
2022-07-29T20:50:00.759Z,62.54
2022-07-29T20:54:52.616Z,62.71
2022-07-29T20:59:45.889Z,62.75
2022-07-29T21:04:37.678Z,62.62
2022-07-29T21:09:29.508Z,62.86
2022-07-29T21:14:41.425Z,62.47
2022-07-29T21:19:33.969Z,62.39
2022-07-29T21:24:25.655Z,62.10
2022-07-29T21:29:18.514Z,61.87
2022-07-29T21:34:11.053Z,61.51
2022-07-29T21:39:07.030Z,61.56
2022-07-29T21:43:59.551Z,61.23
2022-07-29T21:48:53.042Z,61.34
2022-07-29T21:53:44.750Z,61.14
2022-07-29T21:58:37.519Z,61.25
2022-07-29T22:03:29.184Z,61.13
2022-07-29T22:08:20.974Z,61.12
2022-07-29T22:13:12.800Z,61.24
2022-07-29T22:18:04.555Z,61.43
2022-07-29T22:22:56.262Z,61.61
2022-07-29T22:27:48.062Z,61.59
2022-07-29T22:32:40.279Z,61.58
2022-07-29T22:37:31.917Z,61.74
2022-07-29T22:42:23.807Z,62.22
2022-07-29T22:47:15.505Z,61.89
2022-07-29T22:52:07.228Z,61.96
2022-07-29T22:56:59.059Z,62.05
2022-07-29T23:01:50.974Z,62.72
2022-07-29T23:06:42.713Z,63.18
2022-07-29T23:11:34.379Z,63.58
2022-07-29T23:16:27.053Z,64.61
2022-07-29T23:21:20.855Z,65.03
2022-07-29T23:26:16.696Z,65.92
2022-07-29T23:31:08.441Z,66.28
2022-07-29T23:36:00.149Z,67.34
2022-07-29T23:40:51.922Z,68.36
2022-07-29T23:45:48.462Z,68.72
2022-07-29T23:50:40.479Z,69.53
2022-07-29T23:55:37.378Z,69.89
